createdAt,value
2022-08-03T00:01:48.886Z,96072.94
2022-08-03T00:04:15.267Z,96079.09
2022-08-03T00:06:41.699Z,96079.09
2022-08-03T00:09:08.390Z,96073.09
2022-08-03T00:11:35.388Z,96081.00
2022-08-03T00:14:01.817Z,96074.06
2022-08-03T00:16:28.293Z,96077.56
2022-08-03T00:18:55.035Z,96074.91
2022-08-03T00:21:21.402Z,96080.19
2022-08-03T00:23:52.300Z,96078.53
2022-08-03T00:26:19.114Z,96078.53
2022-08-03T00:28:45.556Z,96077.69
2022-08-03T00:31:13.476Z,96078.53
2022-08-03T00:33:59.101Z,96073.25
2022-08-03T00:36:26.315Z,96075.03
2022-08-03T00:38:52.682Z,96071.56
2022-08-03T00:41:19.085Z,96076.84
2022-08-03T00:43:45.688Z,96070.75
2022-08-03T00:46:12.102Z,96072.53
2022-08-03T00:48:38.493Z,96077.81
2022-08-03T00:51:05.156Z,96074.34
2022-08-03T00:53:32.014Z,96074.34
2022-08-03T00:55:58.821Z,96082.41
2022-08-03T00:58:25.329Z,96066.56
2022-08-03T01:00:51.890Z,96075.44
2022-08-03T01:03:18.362Z,96077.13
2022-08-03T01:05:44.703Z,96068.38
2022-08-03T01:08:34.489Z,96075.44
2022-08-03T01:11:12.175Z,96067.50
2022-08-03T01:14:01.314Z,96074.63
2022-08-03T01:16:36.756Z,96075.44
2022-08-03T01:19:22.218Z,96071.13
2022-08-03T01:21:48.583Z,96066.84
2022-08-03T01:24:24.722Z,96069.47
2022-08-03T01:27:05.218Z,96072.97
2022-08-03T01:29:50.420Z,96061.56
2022-08-03T01:32:58.801Z,96066.84
2022-08-03T01:35:06.648Z,96065.16
2022-08-03T01:37:45.315Z,96067.81
2022-08-03T01:40:13.408Z,96070.47
2022-08-03T01:42:40.995Z,96059.03
2022-08-03T01:45:08.924Z,96056.53
2022-08-03T01:47:35.729Z,96061.81
2022-08-03T01:50:03.286Z,96067.09
2022-08-03T01:52:31.315Z,96056.53
2022-08-03T01:54:58.418Z,96061.81
2022-08-03T01:57:25.387Z,96060.16
2022-08-03T01:59:52.476Z,96066.28
2022-08-03T02:02:33.546Z,96060.16
2022-08-03T02:05:01.336Z,96060.16
2022-08-03T02:07:29.094Z,96065.44
2022-08-03T02:09:55.825Z,96065.44
2022-08-03T02:12:23.952Z,96061.13
2022-08-03T02:14:50.658Z,96062.09
2022-08-03T02:17:17.355Z,96067.38
2022-08-03T02:19:44.549Z,96067.38
2022-08-03T02:22:11.974Z,96070.97
2022-08-03T02:24:38.717Z,96076.25
2022-08-03T02:27:21.254Z,96065.69
2022-08-03T02:29:50.972Z,96068.34
2022-08-03T02:32:19.787Z,96069.31
2022-08-03T02:34:47.649Z,96074.59
2022-08-03T02:37:14.992Z,96068.47
2022-08-03T02:39:42.901Z,96065.00
2022-08-03T02:42:12.764Z,96062.38
2022-08-03T02:44:41.592Z,96067.66
2022-08-03T02:47:09.584Z,96057.09
2022-08-03T02:49:50.777Z,96057.09
2022-08-03T02:52:19.905Z,96065.97
2022-08-03T02:54:46.718Z,96065.00
2022-08-03T02:57:14.597Z,96059.88
2022-08-03T02:59:42.610Z,96059.88
2022-08-03T03:02:09.877Z,96059.03
2022-08-03T03:04:36.827Z,96068.78
2022-08-03T03:07:04.433Z,96067.91
2022-08-03T03:09:40.353Z,96067.91
2022-08-03T03:12:09.771Z,96062.63
2022-08-03T03:14:36.492Z,96074.06
2022-08-03T03:19:30.867Z,96065.41
2022-08-03T03:21:58.868Z,96070.69
2022-08-03T03:24:25.529Z,96067.25
2022-08-03T03:26:52.290Z,96073.47
2022-08-03T03:29:18.904Z,96068.19
2022-08-03T03:31:45.574Z,96067.38
2022-08-03T03:34:12.229Z,96076.09
2022-08-03T03:36:39.043Z,96079.59
2022-08-03T03:39:15.949Z,96077.09
2022-08-03T03:41:43.348Z,96077.09
2022-08-03T03:44:09.774Z,96077.09
2022-08-03T03:46:36.990Z,96071.81
2022-08-03T03:49:05.145Z,96081.53
2022-08-03T03:51:31.768Z,96075.41
2022-08-03T03:53:59.052Z,96078.06
2022-08-03T03:56:25.842Z,96079.03
2022-08-03T03:58:52.339Z,96077.09
2022-08-03T04:01:19.148Z,96082.63
2022-08-03T04:03:45.820Z,96083.47
2022-08-03T04:06:31.337Z,96078.19
2022-08-03T04:09:00.378Z,96082.63
2022-08-03T04:11:30.295Z,96078.31
2022-08-03T04:14:16.547Z,96083.47
2022-08-03T04:16:46.213Z,96091.53
2022-08-03T04:19:19.669Z,96079.31
2022-08-03T04:21:51.218Z,96084.59
2022-08-03T04:24:19.033Z,96080.13
2022-08-03T04:26:50.846Z,96076.75
2022-08-03T04:29:19.737Z,96088.19
2022-08-03T04:31:46.768Z,96084.59
2022-08-03T04:34:13.300Z,96095.16
2022-08-03T04:36:44.254Z,96096.94
2022-08-03T04:39:16.501Z,96094.31
2022-08-03T04:42:08.277Z,96087.31
2022-08-03T04:44:31.725Z,96084.69
2022-08-03T04:46:58.375Z,96097.03
2022-08-03T04:49:25.321Z,96094.41
2022-08-03T04:51:52.693Z,96097.03
2022-08-03T04:54:19.163Z,96091.75
2022-08-03T04:56:45.604Z,96093.59
2022-08-03T04:59:12.272Z,96097.03
2022-08-03T05:01:39.915Z,96097.03
2022-08-03T05:04:06.342Z,96097.03
2022-08-03T05:06:32.733Z,96099.00
2022-08-03T05:08:59.698Z,96099.00
2022-08-03T05:11:26.147Z,96097.34
2022-08-03T05:13:52.617Z,96109.56
2022-08-03T05:16:19.051Z,96116.50
2022-08-03T05:18:46.033Z,96113.88
2022-08-03T05:21:14.498Z,96116.50
2022-08-03T05:23:41.441Z,96115.66
2022-08-03T05:26:07.853Z,96115.66
2022-08-03T05:28:34.299Z,96119.16
2022-08-03T05:31:00.727Z,96115.66
2022-08-03T05:33:27.184Z,96119.16
2022-08-03T05:36:02.728Z,96121.78
2022-08-03T05:38:34.744Z,96127.06
2022-08-03T05:41:21.785Z,96114.84
2022-08-03T05:43:48.681Z,96114.84
2022-08-03T05:46:15.077Z,96121.78
2022-08-03T05:48:42.219Z,96127.91
2022-08-03T05:51:11.457Z,96125.41
2022-08-03T05:53:38.843Z,96128.72
2022-08-03T05:56:14.730Z,96128.72
2022-08-03T05:58:45.512Z,96120.72
2022-08-03T06:01:12.135Z,96129.59
2022-08-03T06:03:38.563Z,96126.84
2022-08-03T06:06:05.014Z,96124.28
2022-08-03T06:08:31.423Z,96126.84
2022-08-03T06:10:57.827Z,96126.84
2022-08-03T06:13:24.250Z,96127.53
2022-08-03T06:15:50.673Z,96132.41
2022-08-03T06:18:17.100Z,96130.47
2022-08-03T06:20:43.509Z,96129.34
2022-08-03T06:23:16.003Z,96130.06
2022-08-03T06:25:44.095Z,96136.03
2022-08-03T06:28:18.956Z,96127.16
2022-08-03T06:30:55.413Z,96134.13
2022-08-03T06:33:21.827Z,96128.00
2022-08-03T06:35:48.295Z,96135.78
2022-08-03T06:38:14.778Z,96142.47
2022-08-03T06:40:41.236Z,96149.41
2022-08-03T06:43:12.342Z,96151.09
2022-08-03T06:45:39.327Z,96148.31
2022-08-03T06:48:07.195Z,96147.22
2022-08-03T06:50:34.344Z,96153.19
2022-08-03T06:53:00.921Z,96158.63
2022-08-03T06:55:27.478Z,96160.56
2022-08-03T06:57:53.984Z,96155.16
2022-08-03T07:00:20.452Z,96161.13
2022-08-03T07:02:47.478Z,96159.19
2022-08-03T07:05:14.322Z,96167.81
2022-08-03T07:07:41.093Z,96169.47
2022-08-03T07:10:08.130Z,96160.88
2022-08-03T07:12:35.036Z,96165.88
2022-08-03T07:15:03.282Z,96168.38
2022-08-03T07:17:30.979Z,96169.22
2022-08-03T07:19:57.849Z,96170.31
2022-08-03T07:22:24.255Z,96185.06
2022-08-03T07:24:50.816Z,96183.41
2022-08-03T07:27:17.210Z,96183.41
2022-08-03T07:29:43.828Z,96185.31
2022-08-03T07:32:10.441Z,96189.78
2022-08-03T07:34:36.941Z,96181.03
2022-08-03T07:37:03.373Z,96184.50
2022-08-03T07:39:29.987Z,96180.03
2022-08-03T07:41:56.374Z,96180.03
2022-08-03T07:44:22.788Z,96181.56
2022-08-03T07:46:50.707Z,96186.72
2022-08-03T07:49:18.466Z,96186.72
2022-08-03T07:51:44.934Z,96184.81
2022-08-03T07:54:11.326Z,96184.81
2022-08-03T07:56:39.030Z,96182.84
2022-08-03T07:59:05.836Z,96183.69
2022-08-03T08:01:35.850Z,96180.91
2022-08-03T08:04:02.360Z,96179.81
2022-08-03T08:06:28.777Z,96173.69
2022-08-03T08:08:59.410Z,96180.63
2022-08-03T08:11:25.794Z,96177.03
2022-08-03T08:13:52.166Z,96180.38
2022-08-03T08:16:18.608Z,96177.72
2022-08-03T08:18:45.014Z,96168.69
2022-08-03T08:21:11.372Z,96170.22
2022-08-03T08:23:43.448Z,96173.56
2022-08-03T08:26:11.875Z,96169.94
2022-08-03T08:28:38.435Z,96169.25
2022-08-03T08:31:05.035Z,96178.44
2022-08-03T08:36:17.924Z,96172.56
2022-08-03T08:38:45.146Z,96168.81
2022-08-03T08:41:12.803Z,96160.75
2022-08-03T08:43:39.293Z,96169.25
2022-08-03T08:46:08.443Z,96166.75
2022-08-03T08:48:39.559Z,96162.72
2022-08-03T08:51:09.844Z,96169.69
2022-08-03T08:53:37.588Z,96162.72
2022-08-03T08:56:05.723Z,96166.44
2022-08-03T08:58:37.725Z,96164.25
2022-08-03T09:01:05.478Z,96159.63
2022-08-03T09:03:33.444Z,96160.91
2022-08-03T09:06:00.922Z,96166.78
2022-08-03T09:08:27.477Z,96164.81
2022-08-03T09:10:53.927Z,96167.88
2022-08-03T09:13:20.884Z,96167.06
2022-08-03T09:16:00.689Z,96160.66
2022-08-03T09:18:32.607Z,96164.25
2022-08-03T09:21:31.176Z,96170.66
2022-08-03T09:24:02.941Z,96170.66
2022-08-03T09:26:31.248Z,96166.88
2022-08-03T09:29:04.665Z,96165.66
2022-08-03T09:31:39.712Z,96170.16
2022-08-03T09:34:14.601Z,96172.34
2022-08-03T09:36:48.046Z,96165.66
2022-08-03T09:39:18.180Z,96170.50
2022-08-03T09:41:46.254Z,96172.34
2022-08-03T09:44:24.096Z,96162.34
2022-08-03T09:46:53.316Z,96163.75
2022-08-03T09:49:19.875Z,96160.53
2022-08-03T09:52:33.519Z,96163.16
2022-08-03T09:54:34.429Z,96157.88
2022-08-03T09:57:01.220Z,96155.09
2022-08-03T09:59:28.724Z,96152.88
2022-08-03T10:01:55.870Z,96157.63
2022-08-03T10:04:22.395Z,96145.09
2022-08-03T10:07:05.555Z,96153.72
2022-08-03T10:09:32.297Z,96150.38
2022-08-03T10:12:07.012Z,96136.31
2022-08-03T10:14:33.845Z,96140.91
2022-08-03T10:17:00.305Z,96137.00
2022-08-03T10:19:26.756Z,96131.56
2022-08-03T10:21:57.964Z,96137.84
2022-08-03T10:24:27.143Z,96134.78
2022-08-03T10:26:57.481Z,96124.50
2022-08-03T10:29:25.253Z,96132.28
2022-08-03T10:31:57.834Z,96132.69
2022-08-03T10:34:27.013Z,96130.88
2022-08-03T10:36:56.294Z,96124.44
2022-08-03T10:39:24.132Z,96128.59
2022-08-03T10:41:51.125Z,96124.16
2022-08-03T10:44:20.390Z,96126.66
2022-08-03T10:46:50.948Z,96129.69
2022-08-03T10:49:33.909Z,96128.34
2022-08-03T10:52:07.586Z,96122.50
2022-08-03T10:54:59.904Z,96122.78
2022-08-03T10:57:46.421Z,96123.63
2022-08-03T11:00:19.675Z,96124.47
2022-08-03T11:03:18.636Z,96118.34
2022-08-03T11:05:53.763Z,96116.69
2022-08-03T11:08:23.318Z,96115.00
2022-08-03T11:10:50.670Z,96106.78
2022-08-03T11:13:19.194Z,96113.06
2022-08-03T11:15:46.695Z,96108.03
2022-08-03T11:18:14.090Z,96113.44
2022-08-03T11:20:44.103Z,96108.56
2022-08-03T11:23:10.664Z,96108.88
2022-08-03T11:25:55.883Z,96102.59
2022-08-03T11:28:25.997Z,96105.53
2022-08-03T11:30:53.378Z,96103.25
2022-08-03T11:33:29.476Z,96102.44
2022-08-03T11:36:02.281Z,96096.03
2022-08-03T11:38:28.707Z,96093.94
2022-08-03T11:40:55.086Z,96094.53
2022-08-03T11:43:31.376Z,96086.84
2022-08-03T11:46:02.603Z,96088.97
2022-08-03T11:48:39.325Z,96085.72
2022-08-03T11:51:07.048Z,96083.78
2022-08-03T11:53:33.755Z,96087.50
2022-08-03T11:56:12.780Z,96086.13
2022-08-03T11:59:00.775Z,96087.66
2022-08-03T12:01:32.708Z,96081.53
2022-08-03T12:04:04.643Z,96076.00
2022-08-03T12:06:31.046Z,96077.13
2022-08-03T12:08:57.486Z,96074.03
2022-08-03T12:11:23.879Z,96071.84
2022-08-03T12:14:44.750Z,96070.44
2022-08-03T12:16:37.705Z,96067.91
2022-08-03T12:19:05.321Z,96062.03
2022-08-03T12:21:32.293Z,96065.66
2022-08-03T12:24:05.087Z,96064.28
2022-08-03T12:26:43.715Z,96057.63
2022-08-03T12:29:17.556Z,96059.56
2022-08-03T12:31:44.006Z,96057.22
2022-08-03T12:34:11.376Z,96047.84
2022-08-03T12:36:39.084Z,96047.25
2022-08-03T12:39:07.191Z,96048.63
2022-08-03T12:41:35.411Z,96036.81
2022-08-03T12:44:05.933Z,96036.84
2022-08-03T12:46:36.245Z,96035.22
2022-08-03T12:49:04.239Z,96033.66
2022-08-03T12:51:32.294Z,96035.03
2022-08-03T12:53:59.144Z,96037.72
2022-08-03T12:56:25.777Z,96039.28
2022-08-03T12:58:53.120Z,96030.22
2022-08-03T13:01:19.952Z,96035.78
2022-08-03T13:03:52.699Z,96033.81
2022-08-03T13:06:23.783Z,96026.63
2022-08-03T13:09:01.160Z,96024.63
2022-08-03T13:11:55.412Z,96022.28
2022-08-03T13:14:19.580Z,96021.84
2022-08-03T13:16:46.772Z,96023.28
2022-08-03T13:19:15.411Z,96026.22
2022-08-03T13:21:53.783Z,96024.72
2022-08-03T13:24:29.594Z,96023.72
2022-08-03T13:26:56.994Z,96021.34
2022-08-03T13:29:23.437Z,96018.84
2022-08-03T13:31:51.128Z,96012.75
2022-08-03T13:34:22.264Z,96017.19
2022-08-03T13:40:00.375Z,95997.84
2022-08-03T13:42:22.685Z,96009.25
2022-08-03T13:44:49.180Z,96005.78
2022-08-03T13:47:15.587Z,96003.97
2022-08-03T13:49:42.117Z,96007.59
2022-08-03T13:52:21.099Z,96001.31
2022-08-03T13:54:47.646Z,96002.97
2022-08-03T13:58:03.079Z,95993.38
2022-08-03T14:00:00.581Z,95995.22
2022-08-03T14:02:27.061Z,95996.88
2022-08-03T14:04:54.730Z,95996.03
2022-08-03T14:07:21.477Z,95991.56
2022-08-03T14:09:48.104Z,95982.94
2022-08-03T14:12:14.594Z,95986.28
2022-08-03T14:14:41.508Z,95977.34
2022-08-03T14:17:07.935Z,95982.66
2022-08-03T14:19:34.338Z,95972.06
2022-08-03T14:22:19.370Z,95979.00
2022-08-03T14:24:45.727Z,95973.72
2022-08-03T14:27:12.177Z,95973.72
2022-08-03T14:29:38.586Z,95963.13
2022-08-03T14:32:09.860Z,95967.47
2022-08-03T14:34:38.692Z,95959.53
2022-08-03T14:37:05.143Z,95949.91
2022-08-03T14:39:58.314Z,95948.25
2022-08-03T14:42:18.096Z,95949.91
2022-08-03T14:44:44.573Z,95945.47
2022-08-03T14:47:11.055Z,95943.66
2022-08-03T14:50:38.460Z,95938.38
2022-08-03T14:52:24.438Z,95940.03
2022-08-03T14:54:50.882Z,95940.03
2022-08-03T14:57:17.486Z,95941.00
2022-08-03T14:59:55.747Z,95932.22
2022-08-03T15:02:24.289Z,95931.38
2022-08-03T15:04:51.014Z,95926.09
2022-08-03T15:07:17.489Z,95931.38
2022-08-03T15:09:44.023Z,95930.56
2022-08-03T15:12:10.443Z,95926.09
2022-08-03T15:14:37.806Z,95920.78
2022-08-03T15:17:04.892Z,95922.63
2022-08-03T15:20:03.797Z,95922.47
2022-08-03T15:22:20.676Z,95917.19
2022-08-03T15:24:51.615Z,95919.66
2022-08-03T15:27:18.159Z,95916.19
2022-08-03T15:30:06.771Z,95913.56
2022-08-03T15:32:31.134Z,95914.38
2022-08-03T15:34:57.596Z,95904.63
2022-08-03T15:37:25.792Z,95896.69
2022-08-03T15:40:00.069Z,95900.19
2022-08-03T15:42:30.629Z,95898.34
2022-08-03T15:44:57.074Z,95894.03
2022-08-03T15:47:23.489Z,95893.19
2022-08-03T15:49:49.893Z,95896.69
2022-08-03T15:52:16.299Z,95892.38
2022-08-03T15:54:42.831Z,95893.19
2022-08-03T15:57:09.262Z,95888.09
2022-08-03T15:59:35.638Z,95888.09
2022-08-03T16:02:02.219Z,95886.25
2022-08-03T16:04:28.725Z,95885.44
2022-08-03T16:06:55.153Z,95885.44
2022-08-03T16:09:24.218Z,95878.47
2022-08-03T16:12:15.409Z,95882.78
2022-08-03T16:14:52.004Z,95875.00
2022-08-03T16:17:20.030Z,95878.47
2022-08-03T16:19:46.667Z,95878.47
2022-08-03T16:22:14.397Z,95870.50
2022-08-03T16:24:41.107Z,95877.66
2022-08-03T16:27:15.550Z,95882.09
2022-08-03T16:29:53.892Z,95871.50
2022-08-03T16:32:20.356Z,95876.78
2022-08-03T16:34:47.847Z,95873.31
2022-08-03T16:37:37.035Z,95870.66
2022-08-03T16:40:00.706Z,95862.72
2022-08-03T16:42:27.209Z,95864.56
2022-08-03T16:44:53.600Z,95865.38
2022-08-03T16:47:22.247Z,95865.38
2022-08-03T16:49:52.994Z,95860.25
2022-08-03T16:52:22.000Z,95854.25
2022-08-03T16:54:53.054Z,95847.31
2022-08-03T16:57:58.440Z,95857.06
2022-08-03T17:00:11.008Z,95852.59
2022-08-03T17:02:37.945Z,95860.69
2022-08-03T17:05:04.904Z,95856.53
2022-08-03T17:07:31.317Z,95849.56
2022-08-03T17:09:57.994Z,95854.88
2022-08-03T17:12:27.089Z,95858.47
2022-08-03T17:14:53.922Z,95856.81
2022-08-03T17:17:23.346Z,95858.66
2022-08-03T17:19:54.233Z,95855.16
2022-08-03T17:22:24.685Z,95848.22
2022-08-03T17:24:52.256Z,95852.81
2022-08-03T17:28:41.883Z,95850.16
2022-08-03T17:30:07.573Z,95848.50
2022-08-03T17:32:37.128Z,95854.63
2022-08-03T17:35:09.727Z,95846.00
2022-08-03T17:37:57.869Z,95852.13
2022-08-03T17:40:23.705Z,95850.44
2022-08-03T17:42:50.716Z,95848.78
2022-08-03T17:45:17.574Z,95847.97
2022-08-03T17:47:45.217Z,95854.06
2022-08-03T17:50:26.064Z,95851.56
2022-08-03T17:53:01.922Z,95850.75
2022-08-03T17:55:56.992Z,95856.06
2022-08-03T17:58:41.517Z,95858.00
2022-08-03T18:02:00.276Z,95865.94
2022-08-03T18:04:21.168Z,95856.34
2022-08-03T18:06:57.541Z,95862.63
2022-08-03T18:10:04.077Z,95869.72
2022-08-03T18:12:22.674Z,95869.72
2022-08-03T18:14:57.606Z,95862.75
2022-08-03T18:17:54.696Z,95860.25
2022-08-03T18:20:32.671Z,95866.38
2022-08-03T18:23:04.888Z,95872.81
2022-08-03T18:25:43.137Z,95867.53
2022-08-03T18:28:16.062Z,95865.84
2022-08-03T18:34:18.022Z,95876.41
2022-08-03T18:36:22.090Z,95862.50
2022-08-03T18:38:56.590Z,95864.19
2022-08-03T18:41:33.178Z,95871.44
2022-08-03T18:44:08.967Z,95864.47
2022-08-03T18:47:06.909Z,95864.47
2022-08-03T18:49:49.333Z,95868.09
2022-08-03T18:52:17.384Z,95868.09
2022-08-03T18:55:02.459Z,95874.22
2022-08-03T18:57:40.346Z,95864.78
2022-08-03T19:00:10.494Z,95874.38
2022-08-03T19:02:41.558Z,95867.41
2022-08-03T19:05:20.105Z,95882.28
2022-08-03T19:08:08.153Z,95865.72
2022-08-03T19:10:42.258Z,95866.72
2022-08-03T19:13:31.016Z,95868.50
2022-08-03T19:16:04.646Z,95870.34
2022-08-03T19:18:36.186Z,95866.03
2022-08-03T19:21:03.489Z,95872.28
2022-08-03T19:23:44.568Z,95881.91
2022-08-03T19:26:30.006Z,95877.56
2022-08-03T19:28:58.188Z,95892.63
2022-08-03T19:31:25.272Z,95890.97
2022-08-03T19:33:58.761Z,95886.50
2022-08-03T19:39:14.409Z,95892.78
2022-08-03T19:41:51.325Z,95895.41
2022-08-03T19:44:22.925Z,95898.19
2022-08-03T19:46:54.177Z,95897.34
2022-08-03T19:49:23.729Z,95897.34
2022-08-03T19:52:10.506Z,95902.63
2022-08-03T19:54:45.817Z,95900.97
2022-08-03T19:57:22.473Z,95913.22
2022-08-03T19:59:49.902Z,95909.91
2022-08-03T20:02:25.560Z,95909.91
2022-08-03T20:04:54.583Z,95916.84
2022-08-03T20:07:22.896Z,95919.63
2022-08-03T20:09:54.505Z,95924.91
2022-08-03T20:12:28.329Z,95915.31
2022-08-03T20:14:58.598Z,95923.25
2022-08-03T20:17:54.849Z,95924.09
2022-08-03T20:20:12.658Z,95926.03
2022-08-03T20:22:43.131Z,95919.94
2022-08-03T20:25:12.787Z,95915.47
2022-08-03T20:28:06.834Z,95923.41
2022-08-03T20:30:33.796Z,95919.09
2022-08-03T20:33:00.216Z,95919.09
2022-08-03T20:35:27.001Z,95925.34
2022-08-03T20:37:54.378Z,95922.69
2022-08-03T20:40:22.138Z,95923.66
2022-08-03T20:42:55.187Z,95921.84
2022-08-03T20:46:00.648Z,95921.00
2022-08-03T20:48:09.478Z,95915.72
2022-08-03T20:50:36.421Z,95914.91
2022-08-03T20:53:03.395Z,95915.72
2022-08-03T20:55:47.819Z,95910.44
2022-08-03T20:58:20.229Z,95922.00
2022-08-03T21:00:51.481Z,95919.34
2022-08-03T21:03:18.550Z,95922.97
2022-08-03T21:05:48.250Z,95927.41
2022-08-03T21:08:21.045Z,95917.69
2022-08-03T21:10:47.701Z,95922.97
2022-08-03T21:12:58.148Z,95871.13
2022-08-03T21:13:10.224Z,95890.97
2022-08-03T21:13:28.660Z,95930.91
2022-08-03T21:16:02.383Z,95929.25
2022-08-03T21:18:44.461Z,95931.88
2022-08-03T21:21:13.654Z,95921.31
2022-08-03T21:23:47.948Z,95919.66
2022-08-03T21:26:16.679Z,95919.66
2022-08-03T21:28:43.826Z,95923.25
2022-08-03T21:31:10.425Z,95928.53
2022-08-03T21:33:36.823Z,95928.53
2022-08-03T21:36:03.485Z,95928.53
2022-08-03T21:38:30.477Z,95930.38
2022-08-03T21:40:57.117Z,95937.44
2022-08-03T21:43:23.534Z,95946.38
2022-08-03T21:45:52.342Z,95949.69
2022-08-03T21:48:19.077Z,95948.03
2022-08-03T21:50:48.681Z,95942.75
2022-08-03T21:53:16.103Z,95948.03
2022-08-03T21:55:46.561Z,95955.28
2022-08-03T21:58:16.194Z,95951.66
2022-08-03T22:00:43.347Z,95953.59
2022-08-03T22:03:15.364Z,95951.78
2022-08-03T22:05:44.474Z,95953.59
2022-08-03T22:08:12.972Z,95952.78
2022-08-03T22:10:39.597Z,95964.16
2022-08-03T22:13:06.202Z,95950.28
2022-08-03T22:15:32.833Z,95961.38
2022-08-03T22:18:03.334Z,95955.56
2022-08-03T22:20:29.958Z,95964.31
2022-08-03T22:22:58.571Z,95966.94
2022-08-03T22:25:29.515Z,95971.41
2022-08-03T22:27:57.083Z,95966.13
2022-08-03T22:30:23.497Z,95976.72
2022-08-03T22:32:52.814Z,95966.94
2022-08-03T22:35:20.387Z,95973.22
2022-08-03T22:37:49.177Z,95971.41
2022-08-03T22:40:16.585Z,95976.72
2022-08-03T22:42:45.637Z,95980.34
2022-08-03T22:45:12.184Z,95980.34
2022-08-03T22:47:58.574Z,95981.28
2022-08-03T22:50:31.826Z,95978.66
2022-08-03T22:52:59.420Z,95987.28
2022-08-03T22:55:26.814Z,95978.66
2022-08-03T22:57:56.225Z,95983.94
2022-08-03T23:00:22.898Z,95983.13
2022-08-03T23:02:50.879Z,95982.25
2022-08-03T23:06:01.276Z,95985.75
2022-08-03T23:08:08.545Z,95986.72
2022-08-03T23:10:36.127Z,95987.56
2022-08-03T23:13:02.721Z,95979.75
2022-08-03T23:15:30.356Z,95978.94
2022-08-03T23:18:03.249Z,95980.59
2022-08-03T23:20:29.882Z,95984.22
2022-08-03T23:23:00.392Z,95985.91
2022-08-03T23:25:26.947Z,95975.31
2022-08-03T23:28:05.358Z,95983.38
2022-08-03T23:30:33.532Z,95986.88
2022-08-03T23:33:01.277Z,95990.47
2022-08-03T23:36:28.061Z,95995.75
2022-08-03T23:38:36.209Z,95995.75
2022-08-03T23:41:03.439Z,95994.94
2022-08-03T23:43:44.939Z,95994.81
2022-08-03T23:46:19.708Z,95993.13
2022-08-03T23:48:46.163Z,95991.47
2022-08-03T23:51:27.853Z,95988.81
2022-08-03T23:54:02.087Z,95989.78
2022-08-03T23:56:28.696Z,96000.38
2022-08-03T23:59:01.331Z,95999.53
